sensor_id;sensor_type;location;lat;lon;timestamp;P1;durP1;ratioP1;P2;durP2;ratioP2
49536;SDS011;74893;30.696;104.058;2023-12-22T00:00:23;66.80;;;59.60;;
49536;SDS011;74893;30.696;104.058;2023-12-22T00:02:53;67.70;;;60.47;;
49536;SDS011;74893;30.696;104.058;2023-12-22T00:05:20;66.07;;;59.08;;
49536;SDS011;74893;30.696;104.058;2023-12-22T00:07:47;64.80;;;57.90;;
49536;SDS011;74893;30.696;104.058;2023-12-22T00:10:14;66.50;;;59.33;;
49536;SDS011;74893;30.696;104.058;2023-12-22T00:12:41;66.43;;;59.30;;
49536;SDS011;74893;30.696;104.058;2023-12-22T00:15:08;66.47;;;59.20;;
49536;SDS011;74893;30.696;104.058;2023-12-22T00:17:37;64.07;;;56.95;;
49536;SDS011;74893;30.696;104.058;2023-12-22T00:20:04;65.95;;;59.00;;
49536;SDS011;74893;30.696;104.058;2023-12-22T00:22:31;66.10;;;59.17;;
49536;SDS011;74893;30.696;104.058;2023-12-22T00:24:59;66.60;;;59.38;;
49536;SDS011;74893;30.696;104.058;2023-12-22T00:27:26;67.28;;;59.92;;
49536;SDS011;74893;30.696;104.058;2023-12-22T00:29:53;68.63;;;61.25;;
49536;SDS011;74893;30.696;104.058;2023-12-22T00:32:20;67.30;;;60.22;;
49536;SDS011;74893;30.696;104.058;2023-12-22T00:34:48;67.30;;;60.20;;
49536;SDS011;74893;30.696;104.058;2023-12-22T00:37:15;69.25;;;61.75;;
49536;SDS011;74893;30.696;104.058;2023-12-22T00:39:42;67.35;;;60.15;;
49536;SDS011;74893;30.696;104.058;2023-12-22T00:42:09;68.07;;;60.97;;
49536;SDS011;74893;30.696;104.058;2023-12-22T00:44:37;66.28;;;59.25;;
49536;SDS011;74893;30.696;104.058;2023-12-22T00:47:05;67.90;;;60.80;;
49536;SDS011;74893;30.696;104.058;2023-12-22T00:49:35;69.45;;;62.00;;
49536;SDS011;74893;30.696;104.058;2023-12-22T00:52:02;70.70;;;62.72;;
49536;SDS011;74893;30.696;104.058;2023-12-22T00:54:29;68.40;;;60.67;;
49536;SDS011;74893;30.696;104.058;2023-12-22T00:56:57;69.93;;;62.33;;
49536;SDS011;74893;30.696;104.058;2023-12-22T00:59:27;68.35;;;61.10;;
49536;SDS011;74893;30.696;104.058;2023-12-22T01:01:54;69.97;;;62.55;;
49536;SDS011;74893;30.696;104.058;2023-12-22T01:04:21;69.13;;;61.67;;
49536;SDS011;74893;30.696;104.058;2023-12-22T01:06:48;69.97;;;62.40;;
49536;SDS011;74893;30.696;104.058;2023-12-22T01:09:15;69.63;;;62.22;;
49536;SDS011;74893;30.696;104.058;2023-12-22T01:11:42;67.78;;;60.63;;
49536;SDS011;74893;30.696;104.058;2023-12-22T01:14:09;68.13;;;60.85;;
49536;SDS011;74893;30.696;104.058;2023-12-22T01:16:39;69.20;;;61.45;;
49536;SDS011;74893;30.696;104.058;2023-12-22T01:19:06;68.07;;;60.90;;
49536;SDS011;74893;30.696;104.058;2023-12-22T01:21:33;70.55;;;63.10;;
49536;SDS011;74893;30.696;104.058;2023-12-22T01:24:00;69.43;;;62.17;;
49536;SDS011;74893;30.696;104.058;2023-12-22T01:26:27;69.03;;;61.38;;
49536;SDS011;74893;30.696;104.058;2023-12-22T01:28:55;67.97;;;60.72;;
49536;SDS011;74893;30.696;104.058;2023-12-22T01:31:22;69.72;;;62.13;;
49536;SDS011;74893;30.696;104.058;2023-12-22T01:33:49;69.68;;;62.08;;
49536;SDS011;74893;30.696;104.058;2023-12-22T01:36:17;67.45;;;60.25;;
49536;SDS011;74893;30.696;104.058;2023-12-22T01:38:43;69.75;;;62.40;;
49536;SDS011;74893;30.696;104.058;2023-12-22T01:41:11;68.05;;;60.05;;
49536;SDS011;74893;30.696;104.058;2023-12-22T01:43:39;68.78;;;61.45;;
49536;SDS011;74893;30.696;104.058;2023-12-22T01:46:07;70.57;;;62.85;;
49536;SDS011;74893;30.696;104.058;2023-12-22T01:48:34;69.30;;;61.90;;
49536;SDS011;74893;30.696;104.058;2023-12-22T01:51:03;68.15;;;60.95;;
49536;SDS011;74893;30.696;104.058;2023-12-22T01:53:30;70.47;;;62.40;;
49536;SDS011;74893;30.696;104.058;2023-12-22T01:55:59;68.63;;;61.05;;
49536;SDS011;74893;30.696;104.058;2023-12-22T01:58:27;70.35;;;62.65;;
49536;SDS011;74893;30.696;104.058;2023-12-22T02:00:58;71.85;;;64.15;;
49536;SDS011;74893;30.696;104.058;2023-12-22T02:03:25;70.07;;;62.78;;
49536;SDS011;74893;30.696;104.058;2023-12-22T02:05:53;72.00;;;64.32;;
49536;SDS011;74893;30.696;104.058;2023-12-22T02:08:21;71.70;;;64.03;;
49536;SDS011;74893;30.696;104.058;2023-12-22T02:10:49;70.80;;;63.05;;
49536;SDS011;74893;30.696;104.058;2023-12-22T02:13:16;72.55;;;64.60;;
49536;SDS011;74893;30.696;104.058;2023-12-22T02:15:43;70.13;;;62.20;;
49536;SDS011;74893;30.696;104.058;2023-12-22T02:18:10;70.80;;;63.13;;
49536;SDS011;74893;30.696;104.058;2023-12-22T02:20:39;73.22;;;65.57;;
49536;SDS011;74893;30.696;104.058;2023-12-22T02:23:06;73.03;;;65.22;;
49536;SDS011;74893;30.696;104.058;2023-12-22T02:25:33;71.88;;;64.05;;
49536;SDS011;74893;30.696;104.058;2023-12-22T02:28:09;71.38;;;63.75;;
49536;SDS011;74893;30.696;104.058;2023-12-22T02:30:38;71.95;;;64.20;;
49536;SDS011;74893;30.696;104.058;2023-12-22T02:33:06;71.72;;;64.22;;
49536;SDS011;74893;30.696;104.058;2023-12-22T02:35:35;71.20;;;63.50;;
49536;SDS011;74893;30.696;104.058;2023-12-22T02:38:04;73.82;;;65.93;;
49536;SDS011;74893;30.696;104.058;2023-12-22T02:40:32;72.13;;;64.43;;
49536;SDS011;74893;30.696;104.058;2023-12-22T02:43:00;72.18;;;64.57;;
49536;SDS011;74893;30.696;104.058;2023-12-22T02:45:28;74.88;;;64.60;;
49536;SDS011;74893;30.696;104.058;2023-12-22T02:47:55;72.55;;;64.75;;
49536;SDS011;74893;30.696;104.058;2023-12-22T02:50:22;71.30;;;63.70;;
49536;SDS011;74893;30.696;104.058;2023-12-22T02:52:50;71.70;;;64.03;;
49536;SDS011;74893;30.696;104.058;2023-12-22T02:55:17;73.90;;;65.97;;
49536;SDS011;74893;30.696;104.058;2023-12-22T02:57:44;71.60;;;64.10;;
49536;SDS011;74893;30.696;104.058;2023-12-22T03:00:11;72.13;;;64.40;;
49536;SDS011;74893;30.696;104.058;2023-12-22T03:02:38;72.18;;;64.65;;
49536;SDS011;74893;30.696;104.058;2023-12-22T03:05:09;72.63;;;64.85;;
49536;SDS011;74893;30.696;104.058;2023-12-22T03:07:36;71.68;;;63.88;;
49536;SDS011;74893;30.696;104.058;2023-12-22T03:10:04;73.65;;;65.60;;
49536;SDS011;74893;30.696;104.058;2023-12-22T03:12:31;72.63;;;64.93;;
49536;SDS011;74893;30.696;104.058;2023-12-22T03:14:58;69.85;;;62.55;;
49536;SDS011;74893;30.696;104.058;2023-12-22T03:17:25;72.13;;;64.55;;
49536;SDS011;74893;30.696;104.058;2023-12-22T03:19:52;71.78;;;64.28;;
49536;SDS011;74893;30.696;104.058;2023-12-22T03:22:19;73.75;;;66.18;;
49536;SDS011;74893;30.696;104.058;2023-12-22T03:24:46;73.70;;;65.65;;
49536;SDS011;74893;30.696;104.058;2023-12-22T03:27:13;74.68;;;66.53;;
49536;SDS011;74893;30.696;104.058;2023-12-22T03:29:42;70.50;;;62.85;;
49536;SDS011;74893;30.696;104.058;2023-12-22T03:32:09;73.32;;;64.88;;
49536;SDS011;74893;30.696;104.058;2023-12-22T03:34:36;72.72;;;64.97;;
49536;SDS011;74893;30.696;104.058;2023-12-22T03:37:03;73.05;;;65.05;;
49536;SDS011;74893;30.696;104.058;2023-12-22T03:39:30;72.40;;;64.65;;
49536;SDS011;74893;30.696;104.058;2023-12-22T03:41:57;75.00;;;66.43;;
49536;SDS011;74893;30.696;104.058;2023-12-22T03:44:25;74.47;;;66.47;;
49536;SDS011;74893;30.696;104.058;2023-12-22T03:46:52;73.00;;;63.97;;
49536;SDS011;74893;30.696;104.058;2023-12-22T03:49:19;74.00;;;66.18;;
49536;SDS011;74893;30.696;104.058;2023-12-22T03:51:46;72.30;;;63.88;;
49536;SDS011;74893;30.696;104.058;2023-12-22T03:54:13;72.93;;;65.10;;
49536;SDS011;74893;30.696;104.058;2023-12-22T03:56:42;72.65;;;64.82;;
49536;SDS011;74893;30.696;104.058;2023-12-22T03:59:10;73.00;;;65.20;;
49536;SDS011;74893;30.696;104.058;2023-12-22T04:01:38;73.95;;;65.88;;
49536;SDS011;74893;30.696;104.058;2023-12-22T04:04:05;72.63;;;64.70;;
49536;SDS011;74893;30.696;104.058;2023-12-22T04:06:33;73.60;;;65.45;;
49536;SDS011;74893;30.696;104.058;2023-12-22T04:09:02;72.18;;;64.60;;
49536;SDS011;74893;30.696;104.058;2023-12-22T04:11:29;72.88;;;65.00;;
49536;SDS011;74893;30.696;104.058;2023-12-22T04:13:57;70.07;;;62.55;;
49536;SDS011;74893;30.696;104.058;2023-12-22T04:16:25;74.63;;;66.72;;
49536;SDS011;74893;30.696;104.058;2023-12-22T04:18:52;70.55;;;62.88;;
49536;SDS011;74893;30.696;104.058;2023-12-22T04:21:19;74.43;;;65.40;;
49536;SDS011;74893;30.696;104.058;2023-12-22T04:23:46;73.93;;;66.10;;
49536;SDS011;74893;30.696;104.058;2023-12-22T04:26:13;74.10;;;66.10;;
49536;SDS011;74893;30.696;104.058;2023-12-22T04:28:40;70.43;;;62.85;;
49536;SDS011;74893;30.696;104.058;2023-12-22T04:31:07;71.25;;;63.53;;
49536;SDS011;74893;30.696;104.058;2023-12-22T04:33:34;71.38;;;63.60;;
49536;SDS011;74893;30.696;104.058;2023-12-22T04:36:01;73.22;;;65.22;;
49536;SDS011;74893;30.696;104.058;2023-12-22T04:38:28;76.13;;;67.47;;
49536;SDS011;74893;30.696;104.058;2023-12-22T04:40:55;73.22;;;64.90;;
49536;SDS011;74893;30.696;104.058;2023-12-22T04:43:23;73.78;;;65.85;;
49536;SDS011;74893;30.696;104.058;2023-12-22T04:45:50;69.15;;;61.58;;
49536;SDS011;74893;30.696;104.058;2023-12-22T04:48:17;73.93;;;66.15;;
49536;SDS011;74893;30.696;104.058;2023-12-22T04:50:44;70.65;;;63.13;;
49536;SDS011;74893;30.696;104.058;2023-12-22T04:53:11;70.75;;;63.38;;
49536;SDS011;74893;30.696;104.058;2023-12-22T04:55:38;73.78;;;65.75;;
49536;SDS011;74893;30.696;104.058;2023-12-22T04:58:05;70.97;;;63.45;;
49536;SDS011;74893;30.696;104.058;2023-12-22T05:00:32;72.10;;;64.30;;
49536;SDS011;74893;30.696;104.058;2023-12-22T05:02:59;72.30;;;64.70;;
49536;SDS011;74893;30.696;104.058;2023-12-22T05:05:26;73.18;;;65.28;;
49536;SDS011;74893;30.696;104.058;2023-12-22T05:07:53;70.15;;;62.90;;
49536;SDS011;74893;30.696;104.058;2023-12-22T05:10:20;70.88;;;63.30;;
49536;SDS011;74893;30.696;104.058;2023-12-22T05:12:47;74.03;;;65.93;;
49536;SDS011;74893;30.696;104.058;2023-12-22T05:15:15;70.80;;;63.30;;
49536;SDS011;74893;30.696;104.058;2023-12-22T05:17:42;70.22;;;62.67;;
49536;SDS011;74893;30.696;104.058;2023-12-22T05:20:09;69.53;;;61.83;;
49536;SDS011;74893;30.696;104.058;2023-12-22T05:22:36;72.45;;;64.85;;
49536;SDS011;74893;30.696;104.058;2023-12-22T05:25:04;73.47;;;65.55;;
49536;SDS011;74893;30.696;104.058;2023-12-22T05:27:31;72.35;;;64.57;;
49536;SDS011;74893;30.696;104.058;2023-12-22T05:29:59;74.88;;;66.78;;
49536;SDS011;74893;30.696;104.058;2023-12-22T05:32:29;70.90;;;63.35;;
49536;SDS011;74893;30.696;104.058;2023-12-22T05:34:56;74.05;;;66.10;;
49536;SDS011;74893;30.696;104.058;2023-12-22T05:37:22;73.80;;;65.95;;
49536;SDS011;74893;30.696;104.058;2023-12-22T05:39:49;71.68;;;64.05;;
49536;SDS011;74893;30.696;104.058;2023-12-22T05:42:16;71.88;;;64.18;;
49536;SDS011;74893;30.696;104.058;2023-12-22T05:44:43;72.53;;;64.72;;
49536;SDS011;74893;30.696;104.058;2023-12-22T05:47:17;72.68;;;64.97;;
49536;SDS011;74893;30.696;104.058;2023-12-22T05:49:45;73.57;;;65.78;;
49536;SDS011;74893;30.696;104.058;2023-12-22T05:52:12;74.97;;;66.57;;
49536;SDS011;74893;30.696;104.058;2023-12-22T05:54:39;73.28;;;65.32;;
49536;SDS011;74893;30.696;104.058;2023-12-22T05:57:06;75.80;;;67.80;;
49536;SDS011;74893;30.696;104.058;2023-12-22T05:59:33;74.15;;;66.22;;
49536;SDS011;74893;30.696;104.058;2023-12-22T06:02:00;72.15;;;64.53;;
49536;SDS011;74893;30.696;104.058;2023-12-22T06:04:28;70.93;;;63.55;;
49536;SDS011;74893;30.696;104.058;2023-12-22T06:06:55;74.88;;;66.90;;
49536;SDS011;74893;30.696;104.058;2023-12-22T06:09:22;73.93;;;65.95;;
49536;SDS011;74893;30.696;104.058;2023-12-22T06:11:49;71.60;;;63.97;;
49536;SDS011;74893;30.696;104.058;2023-12-22T06:14:16;75.70;;;67.32;;
49536;SDS011;74893;30.696;104.058;2023-12-22T06:16:43;74.88;;;66.97;;
49536;SDS011;74893;30.696;104.058;2023-12-22T06:19:10;75.45;;;67.55;;
49536;SDS011;74893;30.696;104.058;2023-12-22T06:21:38;75.22;;;67.13;;
49536;SDS011;74893;30.696;104.058;2023-12-22T06:24:06;75.50;;;67.28;;
49536;SDS011;74893;30.696;104.058;2023-12-22T06:26:34;75.38;;;67.25;;
49536;SDS011;74893;30.696;104.058;2023-12-22T06:29:01;73.10;;;65.38;;
49536;SDS011;74893;30.696;104.058;2023-12-22T06:31:29;77.20;;;68.90;;
49536;SDS011;74893;30.696;104.058;2023-12-22T06:33:56;74.90;;;66.97;;
49536;SDS011;74893;30.696;104.058;2023-12-22T06:36:27;77.82;;;69.18;;
49536;SDS011;74893;30.696;104.058;2023-12-22T06:38:58;74.35;;;66.55;;
49536;SDS011;74893;30.696;104.058;2023-12-22T06:41:26;77.15;;;68.38;;
49536;SDS011;74893;30.696;104.058;2023-12-22T06:43:54;78.07;;;68.13;;
49536;SDS011;74893;30.696;104.058;2023-12-22T06:46:22;75.60;;;67.78;;
49536;SDS011;74893;30.696;104.058;2023-12-22T06:48:51;75.78;;;67.78;;
49536;SDS011;74893;30.696;104.058;2023-12-22T06:53:49;77.88;;;68.75;;
49536;SDS011;74893;30.696;104.058;2023-12-22T06:56:23;76.20;;;68.03;;
49536;SDS011;74893;30.696;104.058;2023-12-22T06:58:51;76.00;;;66.65;;
49536;SDS011;74893;30.696;104.058;2023-12-22T07:01:19;77.47;;;69.47;;
49536;SDS011;74893;30.696;104.058;2023-12-22T07:03:47;76.78;;;68.50;;
49536;SDS011;74893;30.696;104.058;2023-12-22T07:06:14;78.30;;;69.88;;
49536;SDS011;74893;30.696;104.058;2023-12-22T07:08:42;76.43;;;68.18;;
49536;SDS011;74893;30.696;104.058;2023-12-22T07:11:12;76.63;;;68.43;;
49536;SDS011;74893;30.696;104.058;2023-12-22T07:13:39;75.63;;;67.70;;
49536;SDS011;74893;30.696;104.058;2023-12-22T07:16:06;77.35;;;69.25;;
49536;SDS011;74893;30.696;104.058;2023-12-22T07:18:33;77.72;;;69.45;;
49536;SDS011;74893;30.696;104.058;2023-12-22T07:21:00;76.80;;;68.68;;
49536;SDS011;74893;30.696;104.058;2023-12-22T07:23:28;75.35;;;67.25;;
49536;SDS011;74893;30.696;104.058;2023-12-22T07:25:55;76.97;;;68.43;;
49536;SDS011;74893;30.696;104.058;2023-12-22T07:28:23;76.15;;;67.93;;
49536;SDS011;74893;30.696;104.058;2023-12-22T07:30:52;77.53;;;69.13;;
49536;SDS011;74893;30.696;104.058;2023-12-22T07:33:21;77.43;;;69.15;;
49536;SDS011;74893;30.696;104.058;2023-12-22T07:35:48;73.68;;;65.80;;
49536;SDS011;74893;30.696;104.058;2023-12-22T07:38:14;75.82;;;67.47;;
49536;SDS011;74893;30.696;104.058;2023-12-22T07:40:41;77.05;;;68.85;;
49536;SDS011;74893;30.696;104.058;2023-12-22T07:43:08;75.57;;;67.55;;
49536;SDS011;74893;30.696;104.058;2023-12-22T07:45:36;76.47;;;68.40;;
49536;SDS011;74893;30.696;104.058;2023-12-22T07:48:03;75.78;;;67.50;;
49536;SDS011;74893;30.696;104.058;2023-12-22T07:50:30;75.68;;;67.40;;
49536;SDS011;74893;30.696;104.058;2023-12-22T07:52:57;78.70;;;70.28;;
49536;SDS011;74893;30.696;104.058;2023-12-22T07:55:24;74.78;;;66.82;;
49536;SDS011;74893;30.696;104.058;2023-12-22T07:57:51;72.60;;;64.80;;
49536;SDS011;74893;30.696;104.058;2023-12-22T08:00:18;75.90;;;67.85;;
49536;SDS011;74893;30.696;104.058;2023-12-22T08:02:45;74.63;;;66.68;;
49536;SDS011;74893;30.696;104.058;2023-12-22T08:05:13;76.97;;;68.57;;
49536;SDS011;74893;30.696;104.058;2023-12-22T08:07:41;76.82;;;68.55;;
49536;SDS011;74893;30.696;104.058;2023-12-22T08:10:08;77.15;;;68.78;;
49536;SDS011;74893;30.696;104.058;2023-12-22T08:12:35;76.97;;;68.80;;
49536;SDS011;74893;30.696;104.058;2023-12-22T08:15:02;76.93;;;68.68;;
49536;SDS011;74893;30.696;104.058;2023-12-22T08:17:30;77.28;;;68.97;;
49536;SDS011;74893;30.696;104.058;2023-12-22T08:19:57;78.80;;;70.22;;
49536;SDS011;74893;30.696;104.058;2023-12-22T08:22:24;76.65;;;68.50;;
49536;SDS011;74893;30.696;104.058;2023-12-22T08:24:51;81.28;;;72.20;;
49536;SDS011;74893;30.696;104.058;2023-12-22T08:27:18;75.03;;;66.97;;
49536;SDS011;74893;30.696;104.058;2023-12-22T08:29:45;77.40;;;68.75;;
49536;SDS011;74893;30.696;104.058;2023-12-22T08:32:12;77.68;;;69.43;;
49536;SDS011;74893;30.696;104.058;2023-12-22T08:34:39;73.80;;;65.80;;
49536;SDS011;74893;30.696;104.058;2023-12-22T08:37:06;74.68;;;66.63;;
49536;SDS011;74893;30.696;104.058;2023-12-22T08:39:34;77.32;;;69.07;;
49536;SDS011;74893;30.696;104.058;2023-12-22T08:42:01;75.82;;;67.78;;
49536;SDS011;74893;30.696;104.058;2023-12-22T08:44:29;74.97;;;66.97;;
49536;SDS011;74893;30.696;104.058;2023-12-22T08:46:56;75.47;;;67.38;;
49536;SDS011;74893;30.696;104.058;2023-12-22T08:49:23;72.25;;;64.50;;
49536;SDS011;74893;30.696;104.058;2023-12-22T08:51:50;75.10;;;67.28;;
49536;SDS011;74893;30.696;104.058;2023-12-22T08:54:17;71.75;;;63.92;;
49536;SDS011;74893;30.696;104.058;2023-12-22T08:56:44;75.45;;;67.18;;
49536;SDS011;74893;30.696;104.058;2023-12-22T08:59:11;75.90;;;66.93;;
49536;SDS011;74893;30.696;104.058;2023-12-22T09:01:38;79.50;;;68.07;;
49536;SDS011;74893;30.696;104.058;2023-12-22T09:04:06;77.55;;;69.05;;
49536;SDS011;74893;30.696;104.058;2023-12-22T09:06:33;83.82;;;68.00;;
49536;SDS011;74893;30.696;104.058;2023-12-22T09:09:01;75.38;;;67.05;;
49536;SDS011;74893;30.696;104.058;2023-12-22T09:11:33;76.68;;;68.35;;
49536;SDS011;74893;30.696;104.058;2023-12-22T09:14:00;75.65;;;67.40;;
49536;SDS011;74893;30.696;104.058;2023-12-22T09:16:27;80.15;;;69.45;;
49536;SDS011;74893;30.696;104.058;2023-12-22T09:18:54;75.15;;;65.88;;
49536;SDS011;74893;30.696;104.058;2023-12-22T09:21:22;77.07;;;68.80;;
49536;SDS011;74893;30.696;104.058;2023-12-22T09:23:49;74.03;;;65.90;;
49536;SDS011;74893;30.696;104.058;2023-12-22T09:26:16;73.95;;;64.90;;
49536;SDS011;74893;30.696;104.058;2023-12-22T09:28:44;72.78;;;64.80;;
49536;SDS011;74893;30.696;104.058;2023-12-22T09:31:11;75.18;;;67.05;;
49536;SDS011;74893;30.696;104.058;2023-12-22T09:33:41;73.38;;;65.53;;
49536;SDS011;74893;30.696;104.058;2023-12-22T09:36:08;72.50;;;64.80;;
49536;SDS011;74893;30.696;104.058;2023-12-22T09:38:36;71.55;;;63.53;;
49536;SDS011;74893;30.696;104.058;2023-12-22T09:41:03;73.10;;;65.07;;
49536;SDS011;74893;30.696;104.058;2023-12-22T09:43:30;74.20;;;61.00;;
49536;SDS011;74893;30.696;104.058;2023-12-22T09:46:00;73.63;;;64.03;;
49536;SDS011;74893;30.696;104.058;2023-12-22T09:48:28;70.78;;;63.10;;
49536;SDS011;74893;30.696;104.058;2023-12-22T09:50:56;71.30;;;63.65;;
49536;SDS011;74893;30.696;104.058;2023-12-22T09:53:28;70.32;;;62.97;;
49536;SDS011;74893;30.696;104.058;2023-12-22T09:55:57;73.63;;;64.22;;
49536;SDS011;74893;30.696;104.058;2023-12-22T09:58:25;73.28;;;63.85;;
49536;SDS011;74893;30.696;104.058;2023-12-22T10:00:52;84.15;;;64.70;;
49536;SDS011;74893;30.696;104.058;2023-12-22T10:03:20;74.97;;;64.00;;
49536;SDS011;74893;30.696;104.058;2023-12-22T10:05:49;71.40;;;63.60;;
49536;SDS011;74893;30.696;104.058;2023-12-22T10:08:16;70.95;;;63.00;;
49536;SDS011;74893;30.696;104.058;2023-12-22T10:10:46;69.65;;;61.72;;
49536;SDS011;74893;30.696;104.058;2023-12-22T10:13:13;71.53;;;63.90;;
49536;SDS011;74893;30.696;104.058;2023-12-22T10:15:41;72.85;;;64.85;;
49536;SDS011;74893;30.696;104.058;2023-12-22T10:18:10;70.05;;;62.42;;
49536;SDS011;74893;30.696;104.058;2023-12-22T10:20:38;73.47;;;65.28;;
49536;SDS011;74893;30.696;104.058;2023-12-22T10:23:05;70.95;;;63.28;;
49536;SDS011;74893;30.696;104.058;2023-12-22T10:25:32;69.95;;;62.33;;
49536;SDS011;74893;30.696;104.058;2023-12-22T10:27:59;70.93;;;63.17;;
49536;SDS011;74893;30.696;104.058;2023-12-22T10:30:27;69.28;;;61.72;;
49536;SDS011;74893;30.696;104.058;2023-12-22T10:32:54;69.10;;;61.75;;
49536;SDS011;74893;30.696;104.058;2023-12-22T10:35:21;70.07;;;62.58;;
49536;SDS011;74893;30.696;104.058;2023-12-22T10:37:49;71.68;;;64.00;;
49536;SDS011;74893;30.696;104.058;2023-12-22T10:40:19;69.13;;;61.70;;
49536;SDS011;74893;30.696;104.058;2023-12-22T10:42:46;68.72;;;61.35;;
49536;SDS011;74893;30.696;104.058;2023-12-22T10:45:14;67.97;;;60.88;;
49536;SDS011;74893;30.696;104.058;2023-12-22T10:47:42;68.22;;;60.60;;
49536;SDS011;74893;30.696;104.058;2023-12-22T10:50:13;69.15;;;61.88;;
49536;SDS011;74893;30.696;104.058;2023-12-22T10:52:40;66.78;;;59.90;;
49536;SDS011;74893;30.696;104.058;2023-12-22T10:55:08;69.38;;;61.95;;
49536;SDS011;74893;30.696;104.058;2023-12-22T10:57:36;66.93;;;59.67;;
49536;SDS011;74893;30.696;104.058;2023-12-22T11:00:05;69.72;;;62.25;;
49536;SDS011;74893;30.696;104.058;2023-12-22T11:02:33;66.90;;;59.85;;
49536;SDS011;74893;30.696;104.058;2023-12-22T11:05:04;68.60;;;61.45;;
49536;SDS011;74893;30.696;104.058;2023-12-22T11:07:34;66.65;;;59.50;;
49536;SDS011;74893;30.696;104.058;2023-12-22T11:10:03;68.95;;;61.65;;
49536;SDS011;74893;30.696;104.058;2023-12-22T11:12:37;67.50;;;60.40;;
49536;SDS011;74893;30.696;104.058;2023-12-22T11:15:05;68.30;;;61.20;;
49536;SDS011;74893;30.696;104.058;2023-12-22T11:17:36;66.80;;;59.80;;
49536;SDS011;74893;30.696;104.058;2023-12-22T11:20:10;68.90;;;61.45;;
49536;SDS011;74893;30.696;104.058;2023-12-22T11:22:38;67.63;;;60.45;;
49536;SDS011;74893;30.696;104.058;2023-12-22T11:25:08;67.72;;;60.40;;
49536;SDS011;74893;30.696;104.058;2023-12-22T11:27:35;70.78;;;63.22;;
49536;SDS011;74893;30.696;104.058;2023-12-22T11:30:04;69.20;;;61.78;;
49536;SDS011;74893;30.696;104.058;2023-12-22T11:32:34;65.32;;;58.45;;
49536;SDS011;74893;30.696;104.058;2023-12-22T11:35:02;68.00;;;60.72;;
49536;SDS011;74893;30.696;104.058;2023-12-22T11:37:29;66.38;;;59.35;;
49536;SDS011;74893;30.696;104.058;2023-12-22T11:39:58;68.57;;;61.35;;
49536;SDS011;74893;30.696;104.058;2023-12-22T11:42:28;66.40;;;59.35;;
49536;SDS011;74893;30.696;104.058;2023-12-22T11:45:02;67.63;;;60.33;;
49536;SDS011;74893;30.696;104.058;2023-12-22T11:47:29;69.10;;;61.67;;
49536;SDS011;74893;30.696;104.058;2023-12-22T11:49:57;68.97;;;61.55;;
49536;SDS011;74893;30.696;104.058;2023-12-22T11:52:27;67.15;;;59.97;;
49536;SDS011;74893;30.696;104.058;2023-12-22T11:54:54;67.35;;;59.90;;
49536;SDS011;74893;30.696;104.058;2023-12-22T12:02:25;67.88;;;60.42;;
49536;SDS011;74893;30.696;104.058;2023-12-22T12:04:53;66.75;;;59.53;;
49536;SDS011;74893;30.696;104.058;2023-12-22T12:10:08;66.70;;;59.88;;
49536;SDS011;74893;30.696;104.058;2023-12-22T12:12:35;65.90;;;59.03;;
49536;SDS011;74893;30.696;104.058;2023-12-22T12:15:18;67.05;;;59.83;;
49536;SDS011;74893;30.696;104.058;2023-12-22T12:17:53;68.10;;;60.88;;
49536;SDS011;74893;30.696;104.058;2023-12-22T12:20:20;66.65;;;59.75;;
49536;SDS011;74893;30.696;104.058;2023-12-22T12:22:48;67.80;;;60.42;;
49536;SDS011;74893;30.696;104.058;2023-12-22T12:25:15;67.82;;;60.72;;
49536;SDS011;74893;30.696;104.058;2023-12-22T12:27:42;68.28;;;60.88;;
49536;SDS011;74893;30.696;104.058;2023-12-22T12:30:10;68.30;;;61.10;;
49536;SDS011;74893;30.696;104.058;2023-12-22T12:32:40;68.38;;;61.17;;
49536;SDS011;74893;30.696;104.058;2023-12-22T12:35:10;67.57;;;60.55;;
49536;SDS011;74893;30.696;104.058;2023-12-22T12:37:44;68.88;;;61.58;;
49536;SDS011;74893;30.696;104.058;2023-12-22T12:40:12;67.22;;;60.05;;
49536;SDS011;74893;30.696;104.058;2023-12-22T12:42:39;65.70;;;58.83;;
49536;SDS011;74893;30.696;104.058;2023-12-22T12:45:08;66.63;;;59.45;;
49536;SDS011;74893;30.696;104.058;2023-12-22T12:47:36;67.72;;;60.58;;
49536;SDS011;74893;30.696;104.058;2023-12-22T12:50:03;68.65;;;61.38;;
49536;SDS011;74893;30.696;104.058;2023-12-22T12:52:30;67.75;;;60.50;;
49536;SDS011;74893;30.696;104.058;2023-12-22T12:54:57;68.00;;;60.63;;
49536;SDS011;74893;30.696;104.058;2023-12-22T12:57:26;66.38;;;59.30;;
49536;SDS011;74893;30.696;104.058;2023-12-22T12:59:53;68.78;;;61.45;;
49536;SDS011;74893;30.696;104.058;2023-12-22T13:02:21;68.80;;;61.35;;
49536;SDS011;74893;30.696;104.058;2023-12-22T13:04:49;67.65;;;60.55;;
49536;SDS011;74893;30.696;104.058;2023-12-22T13:07:25;68.65;;;61.65;;
49536;SDS011;74893;30.696;104.058;2023-12-22T13:09:52;69.20;;;62.13;;
49536;SDS011;74893;30.696;104.058;2023-12-22T13:12:22;72.47;;;64.88;;
49536;SDS011;74893;30.696;104.058;2023-12-22T13:14:50;70.43;;;62.95;;
49536;SDS011;74893;30.696;104.058;2023-12-22T13:17:17;70.82;;;63.53;;
49536;SDS011;74893;30.696;104.058;2023-12-22T13:19:44;70.95;;;63.55;;
49536;SDS011;74893;30.696;104.058;2023-12-22T13:22:11;68.95;;;61.78;;
49536;SDS011;74893;30.696;104.058;2023-12-22T13:24:39;67.32;;;60.17;;
49536;SDS011;74893;30.696;104.058;2023-12-22T13:27:06;66.65;;;59.65;;
49536;SDS011;74893;30.696;104.058;2023-12-22T13:29:45;69.72;;;62.22;;
49536;SDS011;74893;30.696;104.058;2023-12-22T13:32:17;69.88;;;62.50;;
49536;SDS011;74893;30.696;104.058;2023-12-22T13:34:48;72.60;;;64.72;;
49536;SDS011;74893;30.696;104.058;2023-12-22T13:37:15;70.30;;;62.92;;
49536;SDS011;74893;30.696;104.058;2023-12-22T13:39:42;70.10;;;62.75;;
49536;SDS011;74893;30.696;104.058;2023-12-22T13:42:18;70.50;;;62.97;;
49536;SDS011;74893;30.696;104.058;2023-12-22T13:47:23;72.85;;;65.22;;
49536;SDS011;74893;30.696;104.058;2023-12-22T13:49:50;70.20;;;62.65;;
49536;SDS011;74893;30.696;104.058;2023-12-22T13:52:30;69.18;;;61.97;;
49536;SDS011;74893;30.696;104.058;2023-12-22T13:55:01;72.00;;;64.38;;
49536;SDS011;74893;30.696;104.058;2023-12-22T13:57:28;70.82;;;63.22;;
49536;SDS011;74893;30.696;104.058;2023-12-22T13:59:55;71.18;;;63.50;;
49536;SDS011;74893;30.696;104.058;2023-12-22T14:02:22;72.15;;;64.63;;
49536;SDS011;74893;30.696;104.058;2023-12-22T14:04:50;71.40;;;63.92;;
49536;SDS011;74893;30.696;104.058;2023-12-22T14:07:17;74.90;;;66.90;;
49536;SDS011;74893;30.696;104.058;2023-12-22T14:09:45;73.80;;;66.00;;
49536;SDS011;74893;30.696;104.058;2023-12-22T14:12:12;72.75;;;64.93;;